Ashton, ID

12:01 PM MDT on April 18, 2015 (GMT -0600)
Ashton Community Pharmacy-23 S 8th St | | Change Station
CLOSE
Current Station
Personal Weather Station
Location: Ashton, ID
Elevation: 5260 ft
Nearby Weather Stations

Elev 5260 ft 44.07 °N, 111.45 °W | Updated 22 seconds ago

Clear
Clear
57.1 °F
Feels Like 57.1 °F
N
6.0
Wind Variable Wind from North
Gusts 14.0 mph

Today
High -- | Low -- °F
--% Chance of Precip.
Yesterday
High -- | Low -- °F
Precip. -- in
6:37 AM 8:13 PM
Waning Crescent, 0% visible
Pressure 29.95 in
Visibility 8.0 miles
Clouds Few 7000 ft
Dew Point 24 °F
Humidity 28%
Rainfall -999.00 in
Snow Depth Not available.
UV 8 out of 12
Pollen 10.60 out of 12
Air Quality Not available.
Flu Activity Sporadic
METAR KDIJ 181756Z AUTO 36009KT 8SM FEW070 14/M03 A3007 RMK AO2 58011 T01381033 10138 21033 SLP141

More Conditions Fewer Conditions

Pressure 29.95 in
Visibility 8.0 miles
Clouds Few 7000 ft
Dew Point 24 °F
Humidity 28%
Rainfall -999.00 in
Snow Depth Not available.
UV 8 out of 12
Pollen 10.60 out of 12
Air Quality Not available.
Flu Activity Sporadic
METAR KDIJ 181756Z AUTO 36009KT 8SM FEW070 14/M03 A3007 RMK AO2 58011 T01381033 10138 21033 SLP141

More Conditions Fewer Conditions

10-Day Weather Forecast

Almanac

Astronomy

Apr. 18, 2015 Rise Set
Actual Time
Civil Twilight
Nautical Twilight
Astronomical Twilight
Moon
Length of Visible Light
Length of Day
Tomorrow will be .
, % of the Moon is Illuminated

Today's Extremes

State Highs State Lows

Community

WunderPhotos

Upload Photos

1,814,472 photos uploaded!

WunderBlogs® & News

Nearby

Air Quality

  Air Quality AQ Index Pollutant
Not available.

Snow Depth

Station Depth Elevation

Earthquake Activity

City Distance Mag. Time & Date
Minimum magnitude displayed is 2.5.

Coastal Water Temperatures

Place Temperature

Stations

Nearby Weather Stations

Station Location Temp. Windchill Dew Point Humidity Wind Precip. Elev Updated Type